sensor_id;sensor_type;location;lat;lon;timestamp;P1;durP1;ratioP1;P2;durP2;ratioP2
12896;SDS011;6516;35.028;32.372;2023-04-07T00:00:35;8.55;;;2.30;;
12896;SDS011;6516;35.028;32.372;2023-04-07T00:03:03;9.38;;;2.40;;
12896;SDS011;6516;35.028;32.372;2023-04-07T00:05:33;9.80;;;2.43;;
12896;SDS011;6516;35.028;32.372;2023-04-07T00:08:01;11.75;;;2.78;;
12896;SDS011;6516;35.028;32.372;2023-04-07T00:10:28;13.82;;;2.90;;
12896;SDS011;6516;35.028;32.372;2023-04-07T00:12:56;8.85;;;2.30;;
12896;SDS011;6516;35.028;32.372;2023-04-07T00:15:24;12.85;;;3.38;;
12896;SDS011;6516;35.028;32.372;2023-04-07T00:17:52;10.57;;;3.10;;
12896;SDS011;6516;35.028;32.372;2023-04-07T00:20:20;13.50;;;3.00;;
12896;SDS011;6516;35.028;32.372;2023-04-07T00:22:50;9.27;;;2.70;;
12896;SDS011;6516;35.028;32.372;2023-04-07T00:25:17;9.50;;;3.40;;
12896;SDS011;6516;35.028;32.372;2023-04-07T00:27:45;12.75;;;2.70;;
12896;SDS011;6516;35.028;32.372;2023-04-07T00:30:13;9.70;;;3.23;;
12896;SDS011;6516;35.028;32.372;2023-04-07T00:32:43;9.93;;;2.60;;
12896;SDS011;6516;35.028;32.372;2023-04-07T00:35:11;9.45;;;2.55;;
12896;SDS011;6516;35.028;32.372;2023-04-07T00:37:39;10.88;;;2.58;;
12896;SDS011;6516;35.028;32.372;2023-04-07T00:40:08;11.18;;;3.03;;
12896;SDS011;6516;35.028;32.372;2023-04-07T00:42:37;12.57;;;3.00;;
12896;SDS011;6516;35.028;32.372;2023-04-07T00:45:05;8.25;;;2.67;;
12896;SDS011;6516;35.028;32.372;2023-04-07T00:47:35;11.52;;;2.60;;
12896;SDS011;6516;35.028;32.372;2023-04-07T00:50:03;12.32;;;2.90;;
12896;SDS011;6516;35.028;32.372;2023-04-07T00:52:32;13.85;;;2.80;;
12896;SDS011;6516;35.028;32.372;2023-04-07T00:55:00;12.73;;;3.10;;
12896;SDS011;6516;35.028;32.372;2023-04-07T00:57:29;10.10;;;2.70;;
12896;SDS011;6516;35.028;32.372;2023-04-07T00:59:57;11.73;;;2.97;;
12896;SDS011;6516;35.028;32.372;2023-04-07T01:02:27;13.05;;;2.72;;
12896;SDS011;6516;35.028;32.372;2023-04-07T01:05:06;9.43;;;2.63;;
12896;SDS011;6516;35.028;32.372;2023-04-07T01:07:43;8.57;;;2.57;;
12896;SDS011;6516;35.028;32.372;2023-04-07T01:10:26;10.95;;;2.72;;
12896;SDS011;6516;35.028;32.372;2023-04-07T01:13:04;9.73;;;3.03;;
12896;SDS011;6516;35.028;32.372;2023-04-07T01:15:36;9.80;;;2.70;;
12896;SDS011;6516;35.028;32.372;2023-04-07T01:18:09;11.80;;;2.95;;
12896;SDS011;6516;35.028;32.372;2023-04-07T01:20:43;7.80;;;2.33;;
12896;SDS011;6516;35.028;32.372;2023-04-07T01:23:16;14.40;;;2.60;;
12896;SDS011;6516;35.028;32.372;2023-04-07T01:25:59;9.23;;;2.78;;
12896;SDS011;6516;35.028;32.372;2023-04-07T01:28:54;10.55;;;2.58;;
12896;SDS011;6516;35.028;32.372;2023-04-07T01:31:36;7.90;;;2.47;;
12896;SDS011;6516;35.028;32.372;2023-04-07T01:34:08;10.93;;;2.90;;
12896;SDS011;6516;35.028;32.372;2023-04-07T01:36:36;11.23;;;2.53;;
12896;SDS011;6516;35.028;32.372;2023-04-07T01:39:05;9.80;;;2.50;;
12896;SDS011;6516;35.028;32.372;2023-04-07T01:41:33;10.60;;;2.70;;
12896;SDS011;6516;35.028;32.372;2023-04-07T01:44:03;11.77;;;2.80;;
12896;SDS011;6516;35.028;32.372;2023-04-07T01:46:32;12.47;;;2.93;;
12896;SDS011;6516;35.028;32.372;2023-04-07T01:49:02;7.68;;;2.50;;
12896;SDS011;6516;35.028;32.372;2023-04-07T01:51:31;8.00;;;2.70;;
12896;SDS011;6516;35.028;32.372;2023-04-07T01:54:00;9.73;;;3.13;;
12896;SDS011;6516;35.028;32.372;2023-04-07T01:56:28;14.02;;;3.03;;
12896;SDS011;6516;35.028;32.372;2023-04-07T01:58:56;10.50;;;2.80;;
12896;SDS011;6516;35.028;32.372;2023-04-07T02:01:24;8.57;;;2.83;;
12896;SDS011;6516;35.028;32.372;2023-04-07T02:03:52;7.85;;;2.80;;
12896;SDS011;6516;35.028;32.372;2023-04-07T02:06:28;9.00;;;2.58;;
12896;SDS011;6516;35.028;32.372;2023-04-07T02:09:04;12.77;;;3.20;;
12896;SDS011;6516;35.028;32.372;2023-04-07T02:11:34;10.70;;;3.03;;
12896;SDS011;6516;35.028;32.372;2023-04-07T02:14:03;8.93;;;2.80;;
12896;SDS011;6516;35.028;32.372;2023-04-07T02:16:32;10.40;;;2.63;;
12896;SDS011;6516;35.028;32.372;2023-04-07T02:19:02;6.45;;;2.60;;
12896;SDS011;6516;35.028;32.372;2023-04-07T02:21:32;7.57;;;2.60;;
12896;SDS011;6516;35.028;32.372;2023-04-07T02:24:01;6.27;;;2.40;;
12896;SDS011;6516;35.028;32.372;2023-04-07T02:26:32;7.38;;;2.65;;
12896;SDS011;6516;35.028;32.372;2023-04-07T02:29:01;12.02;;;2.85;;
12896;SDS011;6516;35.028;32.372;2023-04-07T02:31:29;11.27;;;3.42;;
12896;SDS011;6516;35.028;32.372;2023-04-07T02:33:56;7.80;;;2.85;;
12896;SDS011;6516;35.028;32.372;2023-04-07T02:36:24;7.47;;;2.57;;
12896;SDS011;6516;35.028;32.372;2023-04-07T02:38:53;7.95;;;2.78;;
12896;SDS011;6516;35.028;32.372;2023-04-07T02:41:21;11.80;;;2.97;;
12896;SDS011;6516;35.028;32.372;2023-04-07T02:43:49;13.02;;;3.25;;
12896;SDS011;6516;35.028;32.372;2023-04-07T02:46:17;10.43;;;2.90;;
12896;SDS011;6516;35.028;32.372;2023-04-07T02:48:45;8.63;;;2.83;;
12896;SDS011;6516;35.028;32.372;2023-04-07T02:51:13;10.95;;;3.33;;
12896;SDS011;6516;35.028;32.372;2023-04-07T02:53:40;9.55;;;2.60;;
12896;SDS011;6516;35.028;32.372;2023-04-07T02:56:09;6.88;;;2.47;;
12896;SDS011;6516;35.028;32.372;2023-04-07T02:58:37;7.80;;;2.45;;
12896;SDS011;6516;35.028;32.372;2023-04-07T03:01:05;10.17;;;2.87;;
12896;SDS011;6516;35.028;32.372;2023-04-07T03:03:33;7.10;;;2.75;;
12896;SDS011;6516;35.028;32.372;2023-04-07T03:06:00;10.98;;;2.80;;
12896;SDS011;6516;35.028;32.372;2023-04-07T03:08:28;8.48;;;2.47;;
12896;SDS011;6516;35.028;32.372;2023-04-07T03:10:56;8.50;;;2.70;;
12896;SDS011;6516;35.028;32.372;2023-04-07T03:13:25;5.47;;;2.20;;
12896;SDS011;6516;35.028;32.372;2023-04-07T03:15:55;8.40;;;2.75;;
12896;SDS011;6516;35.028;32.372;2023-04-07T03:18:23;7.35;;;2.60;;
12896;SDS011;6516;35.028;32.372;2023-04-07T03:20:50;6.45;;;2.80;;
12896;SDS011;6516;35.028;32.372;2023-04-07T03:23:19;6.28;;;2.53;;
12896;SDS011;6516;35.028;32.372;2023-04-07T03:25:48;8.73;;;3.07;;
12896;SDS011;6516;35.028;32.372;2023-04-07T03:28:16;10.98;;;2.80;;
12896;SDS011;6516;35.028;32.372;2023-04-07T03:30:45;9.82;;;2.65;;
12896;SDS011;6516;35.028;32.372;2023-04-07T03:33:13;8.40;;;2.70;;
12896;SDS011;6516;35.028;32.372;2023-04-07T03:35:41;7.18;;;2.33;;
12896;SDS011;6516;35.028;32.372;2023-04-07T03:38:08;18.67;;;3.33;;
12896;SDS011;6516;35.028;32.372;2023-04-07T03:40:36;8.52;;;2.85;;
12896;SDS011;6516;35.028;32.372;2023-04-07T03:43:04;8.27;;;3.25;;
12896;SDS011;6516;35.028;32.372;2023-04-07T03:45:36;9.02;;;3.08;;
12896;SDS011;6516;35.028;32.372;2023-04-07T03:48:06;8.27;;;2.70;;
12896;SDS011;6516;35.028;32.372;2023-04-07T03:50:36;8.10;;;2.90;;
12896;SDS011;6516;35.028;32.372;2023-04-07T03:53:04;8.40;;;2.78;;
12896;SDS011;6516;35.028;32.372;2023-04-07T03:55:32;11.57;;;2.85;;
12896;SDS011;6516;35.028;32.372;2023-04-07T03:58:01;9.10;;;3.70;;
12896;SDS011;6516;35.028;32.372;2023-04-07T04:00:29;7.72;;;2.60;;
12896;SDS011;6516;35.028;32.372;2023-04-07T04:02:58;8.77;;;2.80;;
12896;SDS011;6516;35.028;32.372;2023-04-07T04:05:27;9.30;;;3.10;;
12896;SDS011;6516;35.028;32.372;2023-04-07T04:07:55;9.25;;;3.00;;
12896;SDS011;6516;35.028;32.372;2023-04-07T04:10:23;8.32;;;2.88;;
12896;SDS011;6516;35.028;32.372;2023-04-07T04:12:51;6.55;;;2.50;;
12896;SDS011;6516;35.028;32.372;2023-04-07T04:15:19;11.37;;;3.70;;
12896;SDS011;6516;35.028;32.372;2023-04-07T04:17:47;8.13;;;2.88;;
12896;SDS011;6516;35.028;32.372;2023-04-07T04:20:14;7.88;;;2.63;;
12896;SDS011;6516;35.028;32.372;2023-04-07T04:22:44;8.65;;;2.38;;
12896;SDS011;6516;35.028;32.372;2023-04-07T04:25:11;7.70;;;2.65;;
12896;SDS011;6516;35.028;32.372;2023-04-07T04:27:39;13.00;;;2.80;;
12896;SDS011;6516;35.028;32.372;2023-04-07T04:30:07;9.35;;;2.60;;
12896;SDS011;6516;35.028;32.372;2023-04-07T04:32:35;8.55;;;2.40;;
12896;SDS011;6516;35.028;32.372;2023-04-07T04:35:04;11.32;;;2.53;;
12896;SDS011;6516;35.028;32.372;2023-04-07T04:37:32;7.40;;;2.60;;
12896;SDS011;6516;35.028;32.372;2023-04-07T04:40:01;9.23;;;2.40;;
12896;SDS011;6516;35.028;32.372;2023-04-07T04:42:32;6.68;;;2.50;;
12896;SDS011;6516;35.028;32.372;2023-04-07T04:45:00;7.00;;;2.13;;
12896;SDS011;6516;35.028;32.372;2023-04-07T04:47:28;5.30;;;1.83;;
12896;SDS011;6516;35.028;32.372;2023-04-07T04:49:56;9.13;;;2.03;;
12896;SDS011;6516;35.028;32.372;2023-04-07T04:52:24;7.37;;;2.00;;
12896;SDS011;6516;35.028;32.372;2023-04-07T04:54:52;6.22;;;1.90;;
12896;SDS011;6516;35.028;32.372;2023-04-07T04:57:21;8.27;;;1.98;;
12896;SDS011;6516;35.028;32.372;2023-04-07T04:59:49;4.32;;;1.60;;
12896;SDS011;6516;35.028;32.372;2023-04-07T05:02:17;6.55;;;1.70;;
12896;SDS011;6516;35.028;32.372;2023-04-07T05:04:45;6.07;;;1.57;;
12896;SDS011;6516;35.028;32.372;2023-04-07T05:07:12;6.80;;;1.75;;
12896;SDS011;6516;35.028;32.372;2023-04-07T05:09:40;7.25;;;1.67;;
12896;SDS011;6516;35.028;32.372;2023-04-07T05:12:08;9.07;;;1.98;;
12896;SDS011;6516;35.028;32.372;2023-04-07T05:14:37;7.18;;;1.67;;
12896;SDS011;6516;35.028;32.372;2023-04-07T05:17:05;5.53;;;1.60;;
12896;SDS011;6516;35.028;32.372;2023-04-07T05:19:32;7.78;;;1.67;;
12896;SDS011;6516;35.028;32.372;2023-04-07T05:22:01;7.90;;;1.70;;
12896;SDS011;6516;35.028;32.372;2023-04-07T05:24:28;6.10;;;1.33;;
12896;SDS011;6516;35.028;32.372;2023-04-07T05:26:56;6.43;;;1.80;;
12896;SDS011;6516;35.028;32.372;2023-04-07T05:29:24;6.83;;;1.93;;
12896;SDS011;6516;35.028;32.372;2023-04-07T05:31:53;6.32;;;1.58;;
12896;SDS011;6516;35.028;32.372;2023-04-07T05:34:21;5.32;;;1.60;;
12896;SDS011;6516;35.028;32.372;2023-04-07T05:36:48;6.00;;;1.63;;
12896;SDS011;6516;35.028;32.372;2023-04-07T05:39:16;5.82;;;1.70;;
12896;SDS011;6516;35.028;32.372;2023-04-07T05:41:44;6.77;;;1.63;;
12896;SDS011;6516;35.028;32.372;2023-04-07T05:44:12;5.38;;;1.42;;
12896;SDS011;6516;35.028;32.372;2023-04-07T05:46:40;5.60;;;1.35;;
12896;SDS011;6516;35.028;32.372;2023-04-07T05:49:09;5.85;;;1.40;;
12896;SDS011;6516;35.028;32.372;2023-04-07T05:51:37;5.45;;;1.25;;
12896;SDS011;6516;35.028;32.372;2023-04-07T05:54:04;6.47;;;1.47;;
12896;SDS011;6516;35.028;32.372;2023-04-07T05:56:32;9.48;;;1.33;;
12896;SDS011;6516;35.028;32.372;2023-04-07T05:59:00;5.72;;;0.95;;
12896;SDS011;6516;35.028;32.372;2023-04-07T06:01:28;7.68;;;1.38;;
12896;SDS011;6516;35.028;32.372;2023-04-07T06:03:55;6.68;;;1.30;;
12896;SDS011;6516;35.028;32.372;2023-04-07T06:06:25;6.93;;;1.13;;
12896;SDS011;6516;35.028;32.372;2023-04-07T06:08:53;8.55;;;1.20;;
12896;SDS011;6516;35.028;32.372;2023-04-07T06:11:22;5.70;;;1.20;;
12896;SDS011;6516;35.028;32.372;2023-04-07T06:13:50;6.57;;;1.20;;
12896;SDS011;6516;35.028;32.372;2023-04-07T06:16:18;6.70;;;1.10;;
12896;SDS011;6516;35.028;32.372;2023-04-07T06:18:46;4.60;;;1.00;;
12896;SDS011;6516;35.028;32.372;2023-04-07T06:21:13;7.38;;;1.13;;
12896;SDS011;6516;35.028;32.372;2023-04-07T06:23:43;6.10;;;1.10;;
12896;SDS011;6516;35.028;32.372;2023-04-07T06:26:10;7.18;;;1.42;;
12896;SDS011;6516;35.028;32.372;2023-04-07T06:28:39;6.10;;;1.42;;
12896;SDS011;6516;35.028;32.372;2023-04-07T06:31:06;6.60;;;1.40;;
12896;SDS011;6516;35.028;32.372;2023-04-07T06:33:34;22.13;;;1.95;;
12896;SDS011;6516;35.028;32.372;2023-04-07T06:36:02;6.22;;;1.45;;
12896;SDS011;6516;35.028;32.372;2023-04-07T06:38:30;9.15;;;1.70;;
12896;SDS011;6516;35.028;32.372;2023-04-07T06:41:00;6.32;;;1.50;;
12896;SDS011;6516;35.028;32.372;2023-04-07T06:43:28;9.37;;;1.80;;
12896;SDS011;6516;35.028;32.372;2023-04-07T06:45:56;9.38;;;2.28;;
12896;SDS011;6516;35.028;32.372;2023-04-07T06:48:24;9.00;;;1.80;;
12896;SDS011;6516;35.028;32.372;2023-04-07T06:50:51;5.15;;;1.60;;
12896;SDS011;6516;35.028;32.372;2023-04-07T06:53:19;9.77;;;2.00;;
12896;SDS011;6516;35.028;32.372;2023-04-07T06:55:47;5.50;;;1.80;;
12896;SDS011;6516;35.028;32.372;2023-04-07T06:58:16;7.75;;;1.77;;
12896;SDS011;6516;35.028;32.372;2023-04-07T07:00:44;6.75;;;1.60;;
12896;SDS011;6516;35.028;32.372;2023-04-07T07:03:12;8.57;;;1.52;;
12896;SDS011;6516;35.028;32.372;2023-04-07T07:05:39;6.88;;;1.60;;
12896;SDS011;6516;35.028;32.372;2023-04-07T07:08:07;6.53;;;1.43;;
12896;SDS011;6516;35.028;32.372;2023-04-07T07:10:35;7.90;;;1.60;;
12896;SDS011;6516;35.028;32.372;2023-04-07T07:13:03;6.70;;;1.63;;
12896;SDS011;6516;35.028;32.372;2023-04-07T07:15:32;8.30;;;2.28;;
12896;SDS011;6516;35.028;32.372;2023-04-07T07:17:59;7.78;;;1.90;;
12896;SDS011;6516;35.028;32.372;2023-04-07T07:20:27;9.40;;;2.00;;
12896;SDS011;6516;35.028;32.372;2023-04-07T07:22:55;6.88;;;2.63;;
12896;SDS011;6516;35.028;32.372;2023-04-07T07:25:24;11.02;;;2.58;;
12896;SDS011;6516;35.028;32.372;2023-04-07T07:27:52;11.82;;;2.45;;
12896;SDS011;6516;35.028;32.372;2023-04-07T07:30:20;9.48;;;3.08;;
12896;SDS011;6516;35.028;32.372;2023-04-07T07:32:50;10.37;;;2.60;;
12896;SDS011;6516;35.028;32.372;2023-04-07T07:35:19;10.85;;;2.70;;
12896;SDS011;6516;35.028;32.372;2023-04-07T07:37:47;7.13;;;2.50;;
12896;SDS011;6516;35.028;32.372;2023-04-07T07:40:15;9.18;;;2.10;;
12896;SDS011;6516;35.028;32.372;2023-04-07T07:42:44;10.85;;;1.98;;
12896;SDS011;6516;35.028;32.372;2023-04-07T07:45:12;6.33;;;1.80;;
12896;SDS011;6516;35.028;32.372;2023-04-07T07:47:41;10.02;;;1.80;;
12896;SDS011;6516;35.028;32.372;2023-04-07T07:50:11;6.88;;;1.90;;
12896;SDS011;6516;35.028;32.372;2023-04-07T07:52:38;8.95;;;1.88;;
12896;SDS011;6516;35.028;32.372;2023-04-07T07:55:07;6.05;;;1.77;;
12896;SDS011;6516;35.028;32.372;2023-04-07T07:57:35;8.63;;;1.60;;
12896;SDS011;6516;35.028;32.372;2023-04-07T08:00:03;7.38;;;1.67;;
12896;SDS011;6516;35.028;32.372;2023-04-07T08:02:32;7.05;;;1.58;;
12896;SDS011;6516;35.028;32.372;2023-04-07T08:05:00;6.80;;;1.58;;
12896;SDS011;6516;35.028;32.372;2023-04-07T08:07:30;7.85;;;1.70;;
12896;SDS011;6516;35.028;32.372;2023-04-07T08:09:58;9.00;;;1.80;;
12896;SDS011;6516;35.028;32.372;2023-04-07T08:12:26;9.00;;;1.92;;
12896;SDS011;6516;35.028;32.372;2023-04-07T08:14:54;6.97;;;1.50;;
12896;SDS011;6516;35.028;32.372;2023-04-07T08:17:21;7.32;;;1.52;;
12896;SDS011;6516;35.028;32.372;2023-04-07T08:19:49;8.93;;;1.65;;
12896;SDS011;6516;35.028;32.372;2023-04-07T08:22:17;6.87;;;1.47;;
12896;SDS011;6516;35.028;32.372;2023-04-07T08:24:46;5.72;;;1.63;;
12896;SDS011;6516;35.028;32.372;2023-04-07T08:27:14;8.02;;;1.50;;
12896;SDS011;6516;35.028;32.372;2023-04-07T08:29:42;6.70;;;1.65;;
12896;SDS011;6516;35.028;32.372;2023-04-07T08:32:10;7.28;;;1.55;;
12896;SDS011;6516;35.028;32.372;2023-04-07T08:34:38;8.13;;;1.80;;
12896;SDS011;6516;35.028;32.372;2023-04-07T08:37:06;9.88;;;1.63;;
12896;SDS011;6516;35.028;32.372;2023-04-07T08:39:33;4.88;;;1.20;;
12896;SDS011;6516;35.028;32.372;2023-04-07T08:42:03;8.15;;;1.60;;
12896;SDS011;6516;35.028;32.372;2023-04-07T08:44:31;5.13;;;1.38;;
12896;SDS011;6516;35.028;32.372;2023-04-07T08:46:59;7.40;;;1.60;;
12896;SDS011;6516;35.028;32.372;2023-04-07T08:49:29;7.40;;;1.20;;
12896;SDS011;6516;35.028;32.372;2023-04-07T08:52:01;6.88;;;1.27;;
12896;SDS011;6516;35.028;32.372;2023-04-07T08:54:37;4.50;;;1.35;;
12896;SDS011;6516;35.028;32.372;2023-04-07T08:57:06;4.78;;;1.10;;
12896;SDS011;6516;35.028;32.372;2023-04-07T08:59:34;5.17;;;1.23;;
12896;SDS011;6516;35.028;32.372;2023-04-07T09:02:05;6.28;;;1.23;;
12896;SDS011;6516;35.028;32.372;2023-04-07T09:04:33;5.07;;;1.00;;
12896;SDS011;6516;35.028;32.372;2023-04-07T09:07:01;4.82;;;0.93;;
12896;SDS011;6516;35.028;32.372;2023-04-07T09:09:29;4.65;;;0.98;;
12896;SDS011;6516;35.028;32.372;2023-04-07T09:11:57;9.07;;;1.17;;
12896;SDS011;6516;35.028;32.372;2023-04-07T09:14:26;4.40;;;1.00;;
12896;SDS011;6516;35.028;32.372;2023-04-07T09:16:54;7.10;;;1.08;;
12896;SDS011;6516;35.028;32.372;2023-04-07T09:19:23;9.02;;;1.13;;
12896;SDS011;6516;35.028;32.372;2023-04-07T09:21:52;7.05;;;1.05;;
12896;SDS011;6516;35.028;32.372;2023-04-07T09:24:21;6.43;;;1.00;;
12896;SDS011;6516;35.028;32.372;2023-04-07T09:26:50;5.38;;;1.20;;
12896;SDS011;6516;35.028;32.372;2023-04-07T09:29:36;4.20;;;0.80;;
12896;SDS011;6516;35.028;32.372;2023-04-07T09:32:05;5.00;;;1.08;;
12896;SDS011;6516;35.028;32.372;2023-04-07T09:34:34;3.85;;;1.00;;
12896;SDS011;6516;35.028;32.372;2023-04-07T09:37:04;4.50;;;0.80;;
12896;SDS011;6516;35.028;32.372;2023-04-07T09:39:33;5.47;;;0.98;;
12896;SDS011;6516;35.028;32.372;2023-04-07T09:42:16;5.88;;;1.17;;
12896;SDS011;6516;35.028;32.372;2023-04-07T09:44:47;6.18;;;1.00;;
12896;SDS011;6516;35.028;32.372;2023-04-07T09:47:15;6.50;;;1.27;;
12896;SDS011;6516;35.028;32.372;2023-04-07T09:49:49;6.07;;;1.00;;
12896;SDS011;6516;35.028;32.372;2023-04-07T09:52:18;5.63;;;1.08;;
12896;SDS011;6516;35.028;32.372;2023-04-07T09:54:48;6.15;;;1.10;;
12896;SDS011;6516;35.028;32.372;2023-04-07T09:57:17;7.78;;;1.30;;
12896;SDS011;6516;35.028;32.372;2023-04-07T09:59:48;6.80;;;1.30;;
12896;SDS011;6516;35.028;32.372;2023-04-07T10:02:18;5.90;;;1.13;;
12896;SDS011;6516;35.028;32.372;2023-04-07T10:04:47;7.47;;;1.55;;
12896;SDS011;6516;35.028;32.372;2023-04-07T10:07:14;4.53;;;1.17;;
12896;SDS011;6516;35.028;32.372;2023-04-07T10:09:43;5.57;;;1.10;;
12896;SDS011;6516;35.028;32.372;2023-04-07T10:12:10;7.70;;;1.10;;
12896;SDS011;6516;35.028;32.372;2023-04-07T10:14:39;6.83;;;1.00;;
12896;SDS011;6516;35.028;32.372;2023-04-07T10:17:12;8.00;;;1.60;;
12896;SDS011;6516;35.028;32.372;2023-04-07T10:19:43;11.18;;;1.30;;
12896;SDS011;6516;35.028;32.372;2023-04-07T10:22:13;6.97;;;1.00;;
12896;SDS011;6516;35.028;32.372;2023-04-07T10:24:44;6.88;;;1.50;;
12896;SDS011;6516;35.028;32.372;2023-04-07T10:27:18;5.60;;;1.40;;
12896;SDS011;6516;35.028;32.372;2023-04-07T10:29:55;6.40;;;1.10;;
12896;SDS011;6516;35.028;32.372;2023-04-07T10:32:26;7.40;;;1.20;;
12896;SDS011;6516;35.028;32.372;2023-04-07T10:35:00;5.13;;;1.10;;
12896;SDS011;6516;35.028;32.372;2023-04-07T10:37:28;9.48;;;1.33;;
12896;SDS011;6516;35.028;32.372;2023-04-07T10:42:56;6.10;;;1.20;;
12896;SDS011;6516;35.028;32.372;2023-04-07T10:48:31;6.43;;;1.30;;
12896;SDS011;6516;35.028;32.372;2023-04-07T10:51:15;5.95;;;1.10;;
12896;SDS011;6516;35.028;32.372;2023-04-07T10:59:37;6.43;;;1.30;;
12896;SDS011;6516;35.028;32.372;2023-04-07T11:05:01;5.63;;;1.30;;
12896;SDS011;6516;35.028;32.372;2023-04-07T11:07:46;6.07;;;1.20;;
12896;SDS011;6516;35.028;32.372;2023-04-07T11:10:16;6.38;;;1.20;;
12896;SDS011;6516;35.028;32.372;2023-04-07T11:13:02;5.00;;;1.23;;
12896;SDS011;6516;35.028;32.372;2023-04-07T11:15:32;6.10;;;1.25;;
12896;SDS011;6516;35.028;32.372;2023-04-07T11:18:12;4.85;;;1.10;;
12896;SDS011;6516;35.028;32.372;2023-04-07T11:20:44;4.63;;;1.10;;
12896;SDS011;6516;35.028;32.372;2023-04-07T11:23:15;6.32;;;1.10;;
12896;SDS011;6516;35.028;32.372;2023-04-07T11:25:45;7.05;;;1.33;;
12896;SDS011;6516;35.028;32.372;2023-04-07T11:28:14;6.95;;;1.20;;
12896;SDS011;6516;35.028;32.372;2023-04-07T11:30:45;5.93;;;1.08;;
12896;SDS011;6516;35.028;32.372;2023-04-07T11:33:17;6.40;;;0.97;;
12896;SDS011;6516;35.028;32.372;2023-04-07T11:35:49;4.93;;;0.80;;
12896;SDS011;6516;35.028;32.372;2023-04-07T11:38:19;4.95;;;0.90;;
12896;SDS011;6516;35.028;32.372;2023-04-07T11:40:48;5.63;;;0.90;;
12896;SDS011;6516;35.028;32.372;2023-04-07T11:43:17;5.75;;;1.17;;
12896;SDS011;6516;35.028;32.372;2023-04-07T11:48:31;5.75;;;1.15;;
12896;SDS011;6516;35.028;32.372;2023-04-07T11:51:02;4.97;;;0.88;;
12896;SDS011;6516;35.028;32.372;2023-04-07T11:53:31;5.75;;;1.00;;
12896;SDS011;6516;35.028;32.372;2023-04-07T11:56:06;5.20;;;1.00;;
12896;SDS011;6516;35.028;32.372;2023-04-07T11:58:36;5.37;;;1.00;;
12896;SDS011;6516;35.028;32.372;2023-04-07T12:01:05;5.47;;;0.90;;
12896;SDS011;6516;35.028;32.372;2023-04-07T12:03:34;7.78;;;1.25;;
12896;SDS011;6516;35.028;32.372;2023-04-07T12:06:04;4.68;;;0.90;;
12896;SDS011;6516;35.028;32.372;2023-04-07T12:08:41;5.38;;;1.38;;
12896;SDS011;6516;35.028;32.372;2023-04-07T12:11:10;5.07;;;0.90;;
12896;SDS011;6516;35.028;32.372;2023-04-07T12:13:39;6.55;;;1.08;;
12896;SDS011;6516;35.028;32.372;2023-04-07T12:16:06;4.18;;;0.80;;
12896;SDS011;6516;35.028;32.372;2023-04-07T12:18:34;5.63;;;0.93;;
12896;SDS011;6516;35.028;32.372;2023-04-07T12:21:04;6.15;;;1.00;;
12896;SDS011;6516;35.028;32.372;2023-04-07T12:23:31;4.00;;;1.00;;
12896;SDS011;6516;35.028;32.372;2023-04-07T12:25:59;7.25;;;1.10;;
12896;SDS011;6516;35.028;32.372;2023-04-07T12:28:27;5.10;;;0.98;;
12896;SDS011;6516;35.028;32.372;2023-04-07T12:30:55;6.15;;;1.30;;
12896;SDS011;6516;35.028;32.372;2023-04-07T12:33:23;6.20;;;1.10;;
12896;SDS011;6516;35.028;32.372;2023-04-07T12:35:50;8.40;;;1.30;;
12896;SDS011;6516;35.028;32.372;2023-04-07T12:38:21;4.15;;;0.90;;
12896;SDS011;6516;35.028;32.372;2023-04-07T12:40:49;7.18;;;1.20;;
12896;SDS011;6516;35.028;32.372;2023-04-07T12:43:17;6.35;;;0.98;;
12896;SDS011;6516;35.028;32.372;2023-04-07T12:45:45;6.72;;;1.02;;
12896;SDS011;6516;35.028;32.372;2023-04-07T12:48:12;7.23;;;0.90;;
12896;SDS011;6516;35.028;32.372;2023-04-07T12:50:40;3.70;;;0.93;;
12896;SDS011;6516;35.028;32.372;2023-04-07T12:53:08;7.00;;;0.90;;
12896;SDS011;6516;35.028;32.372;2023-04-07T12:55:37;4.78;;;1.00;;
12896;SDS011;6516;35.028;32.372;2023-04-07T12:58:06;5.93;;;0.90;;
12896;SDS011;6516;35.028;32.372;2023-04-07T13:00:34;5.43;;;0.87;;
12896;SDS011;6516;35.028;32.372;2023-04-07T13:03:02;5.35;;;0.90;;
12896;SDS011;6516;35.028;32.372;2023-04-07T13:05:30;4.90;;;0.90;;
12896;SDS011;6516;35.028;32.372;2023-04-07T13:07:58;7.15;;;1.00;;
12896;SDS011;6516;35.028;32.372;2023-04-07T13:10:26;4.60;;;0.80;;
12896;SDS011;6516;35.028;32.372;2023-04-07T13:12:56;4.03;;;0.80;;
12896;SDS011;6516;35.028;32.372;2023-04-07T13:15:23;4.43;;;0.90;;
12896;SDS011;6516;35.028;32.372;2023-04-07T13:17:52;5.07;;;1.20;;
12896;SDS011;6516;35.028;32.372;2023-04-07T13:20:20;4.72;;;0.90;;
12896;SDS011;6516;35.028;32.372;2023-04-07T13:22:50;3.70;;;0.90;;
12896;SDS011;6516;35.028;32.372;2023-04-07T13:25:18;4.33;;;1.10;;
12896;SDS011;6516;35.028;32.372;2023-04-07T13:27:46;3.08;;;0.70;;
12896;SDS011;6516;35.028;32.372;2023-04-07T13:30:15;3.13;;;1.00;;
12896;SDS011;6516;35.028;32.372;2023-04-07T13:32:43;4.68;;;0.70;;
12896;SDS011;6516;35.028;32.372;2023-04-07T13:35:14;4.65;;;1.15;;
12896;SDS011;6516;35.028;32.372;2023-04-07T13:37:42;4.93;;;1.20;;
12896;SDS011;6516;35.028;32.372;2023-04-07T13:40:10;4.30;;;0.90;;
12896;SDS011;6516;35.028;32.372;2023-04-07T13:42:38;4.10;;;0.95;;
12896;SDS011;6516;35.028;32.372;2023-04-07T13:45:06;2.97;;;0.73;;
12896;SDS011;6516;35.028;32.372;2023-04-07T13:47:37;4.00;;;0.88;;
12896;SDS011;6516;35.028;32.372;2023-04-07T13:50:05;3.23;;;0.70;;
12896;SDS011;6516;35.028;32.372;2023-04-07T13:52:33;5.15;;;0.90;;
12896;SDS011;6516;35.028;32.372;2023-04-07T13:55:01;4.32;;;0.75;;
12896;SDS011;6516;35.028;32.372;2023-04-07T13:57:29;3.13;;;0.73;;
12896;SDS011;6516;35.028;32.372;2023-04-07T13:59:57;4.68;;;0.90;;
12896;SDS011;6516;35.028;32.372;2023-04-07T14:02:25;5.37;;;0.70;;
12896;SDS011;6516;35.028;32.372;2023-04-07T14:04:55;4.70;;;0.75;;
12896;SDS011;6516;35.028;32.372;2023-04-07T14:07:23;3.42;;;0.82;;
12896;SDS011;6516;35.028;32.372;2023-04-07T14:09:51;4.22;;;0.80;;
12896;SDS011;6516;35.028;32.372;2023-04-07T14:12:19;1.75;;;0.70;;
12896;SDS011;6516;35.028;32.372;2023-04-07T14:14:47;2.17;;;0.60;;
12896;SDS011;6516;35.028;32.372;2023-04-07T14:17:17;2.22;;;0.68;;
12896;SDS011;6516;35.028;32.372;2023-04-07T14:19:44;3.60;;;0.82;;
12896;SDS011;6516;35.028;32.372;2023-04-07T14:22:14;4.45;;;0.73;;
12896;SDS011;6516;35.028;32.372;2023-04-07T14:24:42;4.68;;;0.80;;
12896;SDS011;6516;35.028;32.372;2023-04-07T14:27:10;4.33;;;1.00;;
12896;SDS011;6516;35.028;32.372;2023-04-07T14:29:38;2.72;;;0.80;;
12896;SDS011;6516;35.028;32.372;2023-04-07T14:32:08;4.93;;;0.90;;
12896;SDS011;6516;35.028;32.372;2023-04-07T14:34:36;2.42;;;0.70;;
12896;SDS011;6516;35.028;32.372;2023-04-07T14:37:03;3.75;;;1.13;;
12896;SDS011;6516;35.028;32.372;2023-04-07T14:39:33;2.07;;;0.73;;
12896;SDS011;6516;35.028;32.372;2023-04-07T14:42:00;2.90;;;0.65;;
12896;SDS011;6516;35.028;32.372;2023-04-07T14:44:30;2.17;;;0.50;;
12896;SDS011;6516;35.028;32.372;2023-04-07T14:46:57;2.70;;;0.70;;
12896;SDS011;6516;35.028;32.372;2023-04-07T14:49:25;2.92;;;0.60;;
12896;SDS011;6516;35.028;32.372;2023-04-07T14:51:53;3.57;;;0.70;;
12896;SDS011;6516;35.028;32.372;2023-04-07T14:54:21;3.55;;;0.85;;
12896;SDS011;6516;35.028;32.372;2023-04-07T14:56:50;3.53;;;0.65;;
12896;SDS011;6516;35.028;32.372;2023-04-07T14:59:18;3.53;;;0.73;;
12896;SDS011;6516;35.028;32.372;2023-04-07T15:01:46;1.92;;;0.50;;
12896;SDS011;6516;35.028;32.372;2023-04-07T15:04:14;1.60;;;0.60;;
12896;SDS011;6516;35.028;32.372;2023-04-07T15:06:42;3.00;;;0.80;;
12896;SDS011;6516;35.028;32.372;2023-04-07T15:09:09;3.63;;;0.93;;
12896;SDS011;6516;35.028;32.372;2023-04-07T15:11:37;2.13;;;0.65;;
12896;SDS011;6516;35.028;32.372;2023-04-07T15:14:06;2.90;;;0.70;;